createdAt,value
2017-01-25T00:00:13.531Z,-2.16
2017-01-25T00:01:13.357Z,-2.21
2017-01-25T00:02:13.456Z,-2.21
2017-01-25T00:03:13.557Z,-2.14
2017-01-25T00:04:13.361Z,-2.24
2017-01-25T00:05:13.406Z,-2.26
2017-01-25T00:06:13.490Z,-2.26
2017-01-25T00:07:13.372Z,-2.36
2017-01-25T00:08:13.461Z,-2.38
2017-01-25T00:09:13.375Z,-2.39
2017-01-25T00:10:13.365Z,-2.43
2017-01-25T00:11:13.475Z,-2.33
2017-01-25T00:12:13.336Z,-2.29
2017-01-25T00:13:13.437Z,-2.39
2017-01-25T00:14:13.456Z,-2.33
2017-01-25T00:15:13.328Z,-2.43
2017-01-25T00:16:13.602Z,-2.45
2017-01-25T00:17:13.428Z,-2.45
2017-01-25T00:18:13.310Z,-2.4
2017-01-25T00:19:13.326Z,-2.54
2017-01-25T00:20:13.398Z,-2.4
2017-01-25T00:21:13.354Z,-2.33
2017-01-25T00:22:13.409Z,-2.51
2017-01-25T00:23:13.338Z,-2.45
2017-01-25T00:24:13.369Z,-2.39
2017-01-25T00:25:13.415Z,-2.35
2017-01-25T00:26:13.322Z,-2.38
2017-01-25T00:27:13.486Z,-2.36
2017-01-25T00:28:13.405Z,-2.45
2017-01-25T00:29:13.515Z,-2.32
2017-01-25T00:30:13.337Z,-2.33
2017-01-25T00:31:13.350Z,-2.36
2017-01-25T00:32:13.352Z,-2.43
2017-01-25T00:33:13.406Z,-2.45
2017-01-25T00:34:13.395Z,-2.4
2017-01-25T00:35:13.473Z,-2.4
2017-01-25T00:36:13.371Z,-2.35
2017-01-25T00:37:13.374Z,-2.38
2017-01-25T00:38:13.499Z,-2.33
2017-01-25T00:39:13.368Z,-2.36
2017-01-25T00:40:13.456Z,-2.33
2017-01-25T00:41:13.402Z,-2.35
2017-01-25T00:42:13.436Z,-2.18
2017-01-25T00:43:13.471Z,-2.28
2017-01-25T00:44:13.375Z,-2.24
2017-01-25T00:45:13.368Z,-2.11
2017-01-25T00:46:13.346Z,-2.2
2017-01-25T00:47:13.342Z,-2.17
2017-01-25T00:48:13.367Z,-2.2
2017-01-25T00:49:13.514Z,-2.38
2017-01-25T00:50:13.374Z,-2.36
2017-01-25T00:51:13.390Z,-2.21
2017-01-25T00:52:13.413Z,-2.29
2017-01-25T00:53:13.431Z,-2.26
2017-01-25T00:54:13.486Z,-2.28
2017-01-25T00:55:13.364Z,-2.42
2017-01-25T00:56:13.354Z,-2.33
2017-01-25T00:57:13.430Z,-2.36
2017-01-25T00:58:13.382Z,-2.24
2017-01-25T00:59:13.340Z,-2.39
2017-01-25T01:00:13.642Z,-2.51
2017-01-25T01:01:13.451Z,-2.35
2017-01-25T01:02:13.337Z,-2.38
2017-01-25T01:03:13.416Z,-2.4
2017-01-25T01:04:13.482Z,-2.35
2017-01-25T01:05:13.595Z,-2.35
2017-01-25T01:06:13.378Z,-2.2
2017-01-25T01:07:13.371Z,-2.29
2017-01-25T01:08:13.465Z,-2.23
2017-01-25T01:09:13.355Z,-2.18
2017-01-25T01:10:13.359Z,-2.16
2017-01-25T01:11:13.402Z,-2.16
2017-01-25T01:12:13.480Z,-2.33
2017-01-25T01:13:13.353Z,-2.21
2017-01-25T01:14:13.362Z,-2.42
2017-01-25T01:15:13.469Z,-2.4
2017-01-25T01:16:13.497Z,-2.29
2017-01-25T01:17:13.489Z,-2.4
2017-01-25T01:18:13.412Z,-2.48
2017-01-25T01:19:13.371Z,-2.38
2017-01-25T01:20:13.363Z,-2.21
2017-01-25T01:21:13.537Z,-2.48
2017-01-25T01:22:13.364Z,-2.45
2017-01-25T01:23:13.516Z,-2.36
2017-01-25T01:24:13.402Z,-2.48
2017-01-25T01:25:13.401Z,-2.54
2017-01-25T01:26:13.360Z,-2.48
2017-01-25T01:27:13.386Z,-2.5
2017-01-25T01:28:13.361Z,-2.56
2017-01-25T01:29:13.373Z,-2.54
2017-01-25T01:30:13.371Z,-2.42
2017-01-25T01:31:13.466Z,-2.47
2017-01-25T01:32:13.386Z,-2.58
2017-01-25T01:33:13.471Z,-2.57
2017-01-25T01:34:13.671Z,-2.61
2017-01-25T01:35:13.416Z,-2.61
2017-01-25T01:36:13.539Z,-2.6
2017-01-25T01:37:13.385Z,-2.57
2017-01-25T01:38:13.534Z,-2.58
2017-01-25T01:39:13.382Z,-2.64
2017-01-25T01:40:13.385Z,-2.6
2017-01-25T01:41:13.485Z,-2.63
2017-01-25T01:42:13.530Z,-2.66
2017-01-25T01:43:13.384Z,-2.74
2017-01-25T01:44:13.409Z,-2.79
2017-01-25T01:45:13.458Z,-2.75
2017-01-25T01:46:13.473Z,-2.89
2017-01-25T01:47:13.428Z,-2.76
2017-01-25T01:48:13.405Z,-2.82
2017-01-25T01:49:13.499Z,-2.87
2017-01-25T01:50:13.395Z,-3.02
2017-01-25T01:51:13.418Z,-2.74
2017-01-25T01:52:13.374Z,-2.96
2017-01-25T01:53:13.407Z,-2.79
2017-01-25T01:54:13.381Z,-2.93
2017-01-25T01:55:13.371Z,-3
2017-01-25T01:56:13.495Z,-2.92
2017-01-25T01:57:13.399Z,-3.02
2017-01-25T01:58:13.397Z,-2.96
2017-01-25T01:59:13.390Z,-2.97
2017-01-25T02:00:13.544Z,-2.97
2017-01-25T02:01:13.415Z,-3.1
2017-01-25T02:02:13.394Z,-3.02
2017-01-25T02:03:13.372Z,-3.04
2017-01-25T02:04:13.504Z,-2.86
2017-01-25T02:05:13.382Z,-2.97
2017-01-25T02:06:13.499Z,-2.92
2017-01-25T02:07:13.389Z,-2.86
2017-01-25T02:08:13.390Z,-2.97
2017-01-25T02:09:13.440Z,-2.92
2017-01-25T02:10:13.526Z,-2.99
2017-01-25T02:11:13.402Z,-2.93
2017-01-25T02:12:13.386Z,-3.02
2017-01-25T02:13:13.547Z,-3.07
2017-01-25T02:14:13.454Z,-3.02
2017-01-25T02:15:13.426Z,-2.93
2017-01-25T02:16:13.585Z,-2.99
2017-01-25T02:17:13.494Z,-2.93
2017-01-25T02:18:13.399Z,-2.9
2017-01-25T02:19:13.573Z,-2.97
2017-01-25T02:20:13.403Z,-2.9
2017-01-25T02:21:13.371Z,-2.9
2017-01-25T02:22:13.392Z,-2.85
2017-01-25T02:23:13.577Z,-3.04
2017-01-25T02:24:13.666Z,-2.86
2017-01-25T02:25:13.394Z,-2.94
2017-01-25T02:26:13.400Z,-2.97
2017-01-25T02:27:13.529Z,-2.92
2017-01-25T02:28:13.405Z,-2.9
2017-01-25T02:29:13.445Z,-3.02
2017-01-25T02:30:13.400Z,-2.92
2017-01-25T02:31:13.393Z,-2.93
2017-01-25T02:32:13.387Z,-2.78
2017-01-25T02:33:13.403Z,-2.85
2017-01-25T02:34:13.401Z,-2.96
2017-01-25T02:35:13.403Z,-3
2017-01-25T02:36:13.395Z,-2.89
2017-01-25T02:37:13.480Z,-2.92
2017-01-25T02:38:13.691Z,-2.81
2017-01-25T02:39:13.665Z,-2.94
2017-01-25T02:40:13.676Z,-2.87
2017-01-25T02:41:13.535Z,-2.9
2017-01-25T02:42:13.484Z,-3.02
2017-01-25T02:43:13.396Z,-2.96
2017-01-25T02:44:13.432Z,-3
2017-01-25T02:45:13.474Z,-3.08
2017-01-25T02:46:13.390Z,-2.99
2017-01-25T02:47:13.433Z,-3.08
2017-01-25T02:48:13.518Z,-3.14
2017-01-25T02:49:13.461Z,-3.11
2017-01-25T02:50:13.489Z,-3.04
2017-01-25T02:51:13.531Z,-3
2017-01-25T02:52:13.444Z,-3.04
2017-01-25T02:53:13.474Z,-3.11
2017-01-25T02:54:13.406Z,-3.14
2017-01-25T02:55:13.675Z,-3.14
2017-01-25T02:56:13.573Z,-3.14
2017-01-25T02:57:13.406Z,-3.08
2017-01-25T02:58:13.617Z,-3.18
2017-01-25T02:59:13.548Z,-3.26
2017-01-25T03:00:13.616Z,-3.22
2017-01-25T03:01:13.548Z,-3.17
2017-01-25T03:02:13.429Z,-3.31
2017-01-25T03:03:13.547Z,-3.28
2017-01-25T03:04:13.584Z,-3.35
2017-01-25T03:05:13.488Z,-3.41
2017-01-25T03:06:13.434Z,-3.22
2017-01-25T03:07:13.559Z,-3.31
2017-01-25T03:08:13.470Z,-3.32
2017-01-25T03:09:13.633Z,-3.53
2017-01-25T03:10:13.436Z,-3.39
2017-01-25T03:11:13.465Z,-3.54
2017-01-25T03:12:13.490Z,-3.53
2017-01-25T03:13:13.582Z,-3.6
2017-01-25T03:14:13.664Z,-3.61
2017-01-25T03:15:13.452Z,-3.6
2017-01-25T03:16:13.413Z,-3.7
2017-01-25T03:17:13.424Z,-3.57
2017-01-25T03:18:13.423Z,-3.56
2017-01-25T03:19:13.423Z,-3.61
2017-01-25T03:20:13.418Z,-3.61
2017-01-25T03:21:13.424Z,-3.54
2017-01-25T03:22:13.446Z,-3.5
2017-01-25T03:23:13.423Z,-3.56
2017-01-25T03:24:13.416Z,-3.53
2017-01-25T03:25:13.427Z,-3.56
2017-01-25T03:26:13.430Z,-3.46
2017-01-25T03:27:13.436Z,-3.49
2017-01-25T03:28:13.442Z,-3.6
2017-01-25T03:29:13.420Z,-3.51
2017-01-25T03:30:13.425Z,-3.39
2017-01-25T03:31:13.432Z,-3.57
2017-01-25T03:32:13.442Z,-3.49
2017-01-25T03:33:13.445Z,-3.49
2017-01-25T03:34:13.438Z,-3.44
2017-01-25T03:35:13.491Z,-3.49
2017-01-25T03:36:13.445Z,-3.46
2017-01-25T03:37:13.444Z,-3.51
2017-01-25T03:38:13.449Z,-3.56
2017-01-25T03:39:13.450Z,-3.62
2017-01-25T03:40:13.435Z,-3.57
2017-01-25T03:41:13.471Z,-3.47
2017-01-25T03:42:13.426Z,-3.41
2017-01-25T03:43:13.456Z,-3.5
2017-01-25T03:44:13.444Z,-3.46
2017-01-25T03:45:13.443Z,-3.53
2017-01-25T03:46:13.453Z,-3.49
2017-01-25T03:47:13.448Z,-3.49
2017-01-25T03:48:13.440Z,-3.38
2017-01-25T03:49:13.437Z,-3.43
2017-01-25T03:50:13.472Z,-3.44
2017-01-25T03:51:13.458Z,-3.46
2017-01-25T03:52:13.433Z,-3.61
2017-01-25T03:53:13.457Z,-3.44
2017-01-25T03:54:13.458Z,-3.6
2017-01-25T03:55:13.450Z,-3.47
2017-01-25T03:56:13.487Z,-3.6
2017-01-25T03:57:13.451Z,-3.53
2017-01-25T03:58:13.443Z,-3.56
2017-01-25T03:59:13.472Z,-3.61
2017-01-25T04:00:13.446Z,-3.51
2017-01-25T04:01:13.486Z,-3.46
2017-01-25T04:02:13.435Z,-3.6
2017-01-25T04:03:13.450Z,-3.68
2017-01-25T04:04:13.468Z,-3.65
2017-01-25T04:05:13.436Z,-3.72
2017-01-25T04:06:13.449Z,-3.68
2017-01-25T04:07:13.437Z,-3.71
2017-01-25T04:08:13.454Z,-3.65
2017-01-25T04:09:13.438Z,-3.8
2017-01-25T04:10:13.440Z,-3.7
2017-01-25T04:11:13.453Z,-3.89
2017-01-25T04:12:13.456Z,-3.81
2017-01-25T04:13:13.462Z,-3.89
2017-01-25T04:14:13.479Z,-3.8
2017-01-25T04:15:13.444Z,-3.91
2017-01-25T04:16:13.439Z,-3.87
2017-01-25T04:17:13.472Z,-3.9
2017-01-25T04:18:13.464Z,-3.83
2017-01-25T04:19:13.449Z,-3.7
2017-01-25T04:20:13.453Z,-3.76
2017-01-25T04:21:13.455Z,-3.86
2017-01-25T04:22:13.450Z,-3.84
2017-01-25T04:23:13.449Z,-3.86
2017-01-25T04:24:13.461Z,-3.75
2017-01-25T04:25:13.496Z,-3.72
2017-01-25T04:26:13.472Z,-3.87
2017-01-25T04:27:13.471Z,-3.78
2017-01-25T04:28:13.500Z,-3.67
2017-01-25T04:29:13.470Z,-3.78
2017-01-25T04:30:13.491Z,-3.78
2017-01-25T04:31:13.502Z,-3.71
2017-01-25T04:32:13.481Z,-3.78
2017-01-25T04:33:13.456Z,-3.7
2017-01-25T04:34:13.480Z,-3.75
2017-01-25T04:35:13.476Z,-3.75
2017-01-25T04:36:13.496Z,-3.68
2017-01-25T04:37:13.461Z,-3.7
2017-01-25T04:38:13.465Z,-3.72
2017-01-25T04:39:13.478Z,-3.78
2017-01-25T04:40:13.470Z,-3.61
2017-01-25T04:41:13.484Z,-3.67
2017-01-25T04:42:13.494Z,-3.67
2017-01-25T04:43:13.483Z,-3.57
2017-01-25T04:44:13.495Z,-3.68
2017-01-25T04:45:13.475Z,-3.78
2017-01-25T04:46:13.477Z,-3.65
2017-01-25T04:47:13.485Z,-3.61
2017-01-25T04:48:13.488Z,-3.67
2017-01-25T04:49:13.493Z,-3.8
2017-01-25T04:50:13.489Z,-3.67
2017-01-25T04:51:13.504Z,-3.75
2017-01-25T04:52:13.484Z,-3.86
2017-01-25T04:53:13.492Z,-3.76
2017-01-25T04:54:13.470Z,-3.67
2017-01-25T04:55:13.474Z,-3.67
2017-01-25T04:56:13.511Z,-3.7
2017-01-25T04:57:13.483Z,-3.75
2017-01-25T04:58:13.511Z,-3.72
2017-01-25T04:59:13.483Z,-3.72
2017-01-25T05:00:13.483Z,-3.83
2017-01-25T05:01:14.116Z,-3.8
2017-01-25T05:02:13.479Z,-3.72
2017-01-25T05:03:13.491Z,-3.86
2017-01-25T05:04:13.496Z,-3.87
2017-01-25T05:05:13.455Z,-3.75
2017-01-25T05:06:13.481Z,-3.76
2017-01-25T05:07:13.491Z,-3.65
2017-01-25T05:08:13.488Z,-3.72
2017-01-25T05:09:13.498Z,-3.84
2017-01-25T05:10:13.490Z,-3.71
2017-01-25T05:11:13.520Z,-3.8
2017-01-25T05:12:13.485Z,-3.83
2017-01-25T05:13:13.487Z,-3.83
2017-01-25T05:14:13.501Z,-3.8
2017-01-25T05:15:13.483Z,-4.02
2017-01-25T05:16:13.514Z,-3.91
2017-01-25T05:17:13.501Z,-4.02
2017-01-25T05:18:13.494Z,-4.04
2017-01-25T05:19:13.495Z,-3.99
2017-01-25T05:20:13.501Z,-3.98
2017-01-25T05:21:13.523Z,-4.01
2017-01-25T05:22:13.493Z,-4.08
2017-01-25T05:23:13.640Z,-4.15
2017-01-25T05:24:13.507Z,-4.04
2017-01-25T05:25:13.506Z,-4.19
2017-01-25T05:26:13.517Z,-4.12
2017-01-25T05:27:13.504Z,-4.15
2017-01-25T05:28:13.511Z,-4.2
2017-01-25T05:29:13.487Z,-4.14
2017-01-25T05:30:13.502Z,-4.22
2017-01-25T05:31:13.533Z,-4.22
2017-01-25T05:32:13.512Z,-4.05
2017-01-25T05:33:13.488Z,-4.08
2017-01-25T05:34:13.505Z,-3.94
2017-01-25T05:35:13.485Z,-4.09
2017-01-25T05:36:13.520Z,-3.94
2017-01-25T05:37:13.535Z,-3.9
2017-01-25T05:38:13.518Z,-3.86
2017-01-25T05:39:13.496Z,-3.87
2017-01-25T05:40:13.500Z,-3.98
2017-01-25T05:41:13.496Z,-3.93
2017-01-25T05:42:13.518Z,-4.04
2017-01-25T05:43:13.520Z,-3.93
2017-01-25T05:44:13.494Z,-3.98
2017-01-25T05:45:13.522Z,-3.9
2017-01-25T05:46:13.516Z,-3.81
2017-01-25T05:47:13.555Z,-3.84
2017-01-25T05:48:13.525Z,-3.87
2017-01-25T05:49:13.496Z,-3.81
2017-01-25T05:50:13.508Z,-3.91
2017-01-25T05:51:13.518Z,-3.86
2017-01-25T05:52:13.492Z,-3.86
2017-01-25T05:53:13.495Z,-3.83
2017-01-25T05:54:13.502Z,-4.05
2017-01-25T05:55:13.498Z,-4.08
2017-01-25T05:56:13.494Z,-4.01
2017-01-25T05:57:13.502Z,-3.94
2017-01-25T05:58:13.520Z,-3.98
2017-01-25T05:59:13.549Z,-3.86
2017-01-25T06:00:13.504Z,-3.91
2017-01-25T06:01:13.509Z,-4.12
2017-01-25T06:02:13.532Z,-3.87
2017-01-25T06:03:13.537Z,-4.04
2017-01-25T06:04:13.544Z,-4.12
2017-01-25T06:05:13.498Z,-4.02
2017-01-25T06:06:13.501Z,-4.22
2017-01-25T06:07:13.497Z,-3.99
2017-01-25T06:08:13.547Z,-4.01
2017-01-25T06:09:13.533Z,-4.15
2017-01-25T06:10:13.504Z,-4.05
2017-01-25T06:11:13.521Z,-4.11
2017-01-25T06:12:13.598Z,-4.12
2017-01-25T06:13:13.533Z,-4.02
2017-01-25T06:14:13.542Z,-3.96
2017-01-25T06:15:13.533Z,-3.99
2017-01-25T06:16:13.552Z,-4.04
2017-01-25T06:17:13.561Z,-4.08
2017-01-25T06:18:13.551Z,-3.98
2017-01-25T06:19:13.524Z,-4.14
2017-01-25T06:20:13.544Z,-4.04
2017-01-25T06:21:13.540Z,-4.09
2017-01-25T06:22:13.551Z,-3.94
2017-01-25T06:23:13.647Z,-4.12
2017-01-25T06:24:13.626Z,-3.98
2017-01-25T06:25:13.802Z,-3.96
2017-01-25T06:26:13.547Z,-3.93
2017-01-25T06:27:13.549Z,-3.99
2017-01-25T06:28:13.542Z,-4.01
2017-01-25T06:29:13.573Z,-3.99
2017-01-25T06:30:13.724Z,-4.15
2017-01-25T06:31:13.579Z,-4.15
2017-01-25T06:32:13.661Z,-4.12
2017-01-25T06:33:13.681Z,-4.18
2017-01-25T06:34:13.574Z,-4.07
2017-01-25T06:35:13.676Z,-4.19
2017-01-25T06:36:13.587Z,-4.19
2017-01-25T06:37:13.524Z,-4.01
2017-01-25T06:38:13.524Z,-4.14
2017-01-25T06:39:13.537Z,-4.26
2017-01-25T06:40:13.532Z,-4.29
2017-01-25T06:41:13.561Z,-4.32
2017-01-25T06:42:13.556Z,-4.28
2017-01-25T06:43:13.519Z,-4.28
2017-01-25T06:44:13.534Z,-4.26
2017-01-25T06:45:13.539Z,-4.19
2017-01-25T06:46:13.542Z,-4.36
2017-01-25T06:47:13.538Z,-4.32
2017-01-25T06:48:13.549Z,-4.37
2017-01-25T06:49:13.516Z,-4.38
2017-01-25T06:50:13.532Z,-4.22
2017-01-25T06:51:13.553Z,-4.3
2017-01-25T06:52:13.602Z,-4.15
2017-01-25T06:53:13.537Z,-4.28
2017-01-25T06:54:13.530Z,-4.22
2017-01-25T06:55:13.525Z,-4.2
2017-01-25T06:56:13.528Z,-4.25
2017-01-25T06:57:13.544Z,-4.26
2017-01-25T06:58:13.573Z,-4.25
2017-01-25T06:59:13.547Z,-4.28
2017-01-25T07:00:13.664Z,-4.26
2017-01-25T07:01:13.536Z,-4.18
2017-01-25T07:02:13.534Z,-4.14
2017-01-25T07:03:13.536Z,-4.36
2017-01-25T07:04:13.530Z,-4.14
2017-01-25T07:05:13.546Z,-4.23
2017-01-25T07:06:13.538Z,-4.12
2017-01-25T07:07:13.543Z,-4.18
2017-01-25T07:08:13.534Z,-4.19
2017-01-25T07:09:13.703Z,-4.19
2017-01-25T07:10:13.538Z,-4.14
2017-01-25T07:11:13.569Z,-3.98
2017-01-25T07:12:13.535Z,-4.15
2017-01-25T07:13:13.532Z,-4.23
2017-01-25T07:14:13.580Z,-4.19
2017-01-25T07:15:13.562Z,-4.08
2017-01-25T07:16:13.563Z,-4.07
2017-01-25T07:17:13.655Z,-4.04
2017-01-25T07:18:13.547Z,-4.12
2017-01-25T07:19:13.611Z,-4.2
2017-01-25T07:20:13.544Z,-4.12
2017-01-25T07:21:13.553Z,-4.02
2017-01-25T07:22:13.544Z,-4.18
2017-01-25T07:23:13.723Z,-4.14
2017-01-25T07:24:13.801Z,-4.09
2017-01-25T07:25:14.417Z,-4.02
2017-01-25T07:26:13.906Z,-4.07
2017-01-25T07:27:13.563Z,-4.12
2017-01-25T07:28:13.576Z,-4.05
2017-01-25T07:29:13.687Z,-4.11
2017-01-25T07:30:13.552Z,-4.08
2017-01-25T07:31:13.585Z,-4.11
2017-01-25T07:32:13.599Z,-4.01
2017-01-25T07:33:13.746Z,-3.96
2017-01-25T07:34:13.620Z,-3.96
2017-01-25T07:35:13.545Z,-4.01
2017-01-25T07:36:13.549Z,-3.91
2017-01-25T07:37:13.577Z,-3.9
2017-01-25T07:38:13.616Z,-4.04
2017-01-25T07:39:13.634Z,-3.89
2017-01-25T07:40:13.580Z,-3.96
2017-01-25T07:41:13.559Z,-3.93
2017-01-25T07:42:13.577Z,-3.94
2017-01-25T07:43:13.650Z,-3.91
2017-01-25T07:44:13.562Z,-4.04
2017-01-25T07:45:13.628Z,-3.94
2017-01-25T07:46:13.567Z,-3.9
2017-01-25T07:47:13.657Z,-4.01
2017-01-25T07:48:13.749Z,-4.02
2017-01-25T07:49:13.627Z,-3.76
2017-01-25T07:50:13.560Z,-3.8
2017-01-25T07:51:13.624Z,-3.94
2017-01-25T07:52:13.575Z,-3.87
2017-01-25T07:53:13.566Z,-3.89
2017-01-25T07:54:13.585Z,-3.9
2017-01-25T07:55:13.594Z,-3.76
2017-01-25T07:56:13.575Z,-3.72
2017-01-25T07:57:13.560Z,-3.84
2017-01-25T07:58:13.570Z,-3.78
2017-01-25T07:59:13.649Z,-3.8
2017-01-25T08:00:13.588Z,-3.81
2017-01-25T08:01:13.600Z,-3.81
2017-01-25T08:02:13.676Z,-3.7
2017-01-25T08:03:13.720Z,-3.68
2017-01-25T08:04:13.708Z,-3.64
2017-01-25T08:05:13.749Z,-3.6
2017-01-25T08:06:13.606Z,-3.7
2017-01-25T08:07:13.606Z,-3.62
2017-01-25T08:08:13.564Z,-3.76
2017-01-25T08:09:13.829Z,-3.49
2017-01-25T08:10:13.650Z,-3.61
2017-01-25T08:11:13.607Z,-3.5
2017-01-25T08:12:14.745Z,-3.62
2017-01-25T08:13:13.587Z,-3.54
2017-01-25T08:14:13.675Z,-3.7
2017-01-25T08:15:13.625Z,-3.44
2017-01-25T08:16:13.923Z,-3.46
2017-01-25T08:17:13.642Z,-3.47
2017-01-25T08:18:13.617Z,-3.26
2017-01-25T08:19:13.783Z,-3.46
2017-01-25T08:20:14.013Z,-3.43
2017-01-25T08:21:13.594Z,-3.25
2017-01-25T08:22:13.619Z,-3.28
2017-01-25T08:23:13.594Z,-3.35
2017-01-25T08:24:13.626Z,-3.17
2017-01-25T08:25:13.588Z,-3.17
2017-01-25T08:26:13.595Z,-3.07
2017-01-25T08:27:13.588Z,-3.17
2017-01-25T08:28:13.580Z,-3.15
2017-01-25T08:29:13.618Z,-3.25
2017-01-25T08:30:13.599Z,-3.13
2017-01-25T08:31:13.578Z,-3
2017-01-25T08:32:13.591Z,-3.17
2017-01-25T08:33:13.589Z,-3.14
2017-01-25T08:34:13.595Z,-3.02
2017-01-25T08:35:13.601Z,-3.07
2017-01-25T08:36:13.630Z,-3.07
2017-01-25T08:37:13.630Z,-3.04
2017-01-25T08:38:13.619Z,-2.93
2017-01-25T08:39:13.635Z,-2.97
2017-01-25T08:40:13.617Z,-2.94
2017-01-25T08:41:13.615Z,-2.94
2017-01-25T08:42:13.614Z,-2.96
2017-01-25T08:43:13.621Z,-2.92
2017-01-25T08:44:13.643Z,-2.71
2017-01-25T08:45:13.743Z,-2.79
2017-01-25T08:46:13.655Z,-2.74
2017-01-25T08:47:13.600Z,-2.79
2017-01-25T08:48:13.627Z,-2.71
2017-01-25T08:49:13.708Z,-2.71
2017-01-25T08:50:13.614Z,-2.75
2017-01-25T08:51:13.661Z,-2.68
2017-01-25T08:52:13.601Z,-2.79
2017-01-25T08:53:13.618Z,-2.75
2017-01-25T08:54:13.626Z,-2.74
2017-01-25T08:55:13.584Z,-2.58
2017-01-25T08:56:13.625Z,-2.54
2017-01-25T08:57:13.618Z,-2.57
2017-01-25T08:58:13.607Z,-2.56
2017-01-25T08:59:13.597Z,-2.53
2017-01-25T09:00:13.593Z,-2.4
2017-01-25T09:01:13.615Z,-2.54
2017-01-25T09:02:13.685Z,-2.47
2017-01-25T09:03:13.616Z,-2.45
2017-01-25T09:04:13.631Z,-2.4
2017-01-25T09:05:13.641Z,-2.45
2017-01-25T09:06:13.615Z,-2.43
2017-01-25T09:07:13.628Z,-2.36
2017-01-25T09:08:13.606Z,-2.38
2017-01-25T09:09:13.630Z,-2.33
2017-01-25T09:10:13.615Z,-2.47
2017-01-25T09:11:13.612Z,-2.35
2017-01-25T09:12:13.612Z,-2.2
2017-01-25T09:13:13.626Z,-2.28
2017-01-25T09:14:13.604Z,-2.23
2017-01-25T09:15:16.453Z,-2.16
2017-01-25T09:16:16.224Z,-2.26
2017-01-25T09:17:13.620Z,-2.13
2017-01-25T09:18:13.641Z,-2.13
2017-01-25T09:19:13.622Z,-2.17
2017-01-25T09:20:13.622Z,-2.02
2017-01-25T09:21:13.630Z,-2.03
2017-01-25T09:22:13.640Z,-1.93
2017-01-25T09:23:13.616Z,-2
2017-01-25T09:24:13.643Z,-2.02
2017-01-25T09:25:13.629Z,-1.96
2017-01-25T09:26:13.630Z,-2.02
2017-01-25T09:27:13.866Z,-1.9
2017-01-25T09:28:13.620Z,-1.85
2017-01-25T09:29:13.610Z,-1.88
2017-01-25T09:30:13.662Z,-1.7
2017-01-25T09:31:13.641Z,-1.8
2017-01-25T09:32:13.634Z,-1.67
2017-01-25T09:33:13.652Z,-1.62
2017-01-25T09:34:13.617Z,-1.62
2017-01-25T09:35:13.626Z,-1.72
2017-01-25T09:36:13.625Z,-1.59
2017-01-25T09:37:13.634Z,-1.63
2017-01-25T09:38:13.621Z,-1.67
2017-01-25T09:39:13.636Z,-1.62
2017-01-25T09:40:13.630Z,-1.75
2017-01-25T09:41:13.632Z,-1.51
2017-01-25T09:42:13.656Z,-1.66
2017-01-25T09:43:13.622Z,-1.51
2017-01-25T09:44:13.648Z,-1.51
2017-01-25T09:45:13.663Z,-1.64
2017-01-25T09:46:13.660Z,-1.57
2017-01-25T09:47:13.668Z,-1.62
2017-01-25T09:48:13.623Z,-1.56
2017-01-25T09:49:13.636Z,-1.56
2017-01-25T09:50:13.634Z,-1.49
2017-01-25T09:51:13.672Z,-1.54
2017-01-25T09:52:13.673Z,-1.38
2017-01-25T09:53:13.652Z,-1.36
2017-01-25T09:54:13.678Z,-1.23
2017-01-25T09:55:13.636Z,-1.21
2017-01-25T09:56:13.640Z,-1.07
2017-01-25T09:57:13.625Z,-1.13
2017-01-25T09:58:13.656Z,-1.09
2017-01-25T09:59:13.623Z,-0.92
2017-01-25T10:00:13.630Z,-1.06
2017-01-25T10:01:13.651Z,-1.05
2017-01-25T10:02:13.677Z,-1.03
2017-01-25T10:03:13.655Z,-0.87
2017-01-25T10:04:13.682Z,-0.75
2017-01-25T10:05:13.634Z,-0.75
2017-01-25T10:06:13.642Z,-0.77
2017-01-25T10:07:13.653Z,-0.48
2017-01-25T10:08:13.634Z,-0.55
2017-01-25T10:09:13.647Z,-0.42
2017-01-25T10:10:13.662Z,-0.48
2017-01-25T10:11:13.817Z,-0.36
2017-01-25T10:12:13.685Z,-0.3
2017-01-25T10:13:13.636Z,-0.23
2017-01-25T10:14:13.643Z,-0.41
2017-01-25T10:15:13.741Z,-0.37
2017-01-25T10:16:13.836Z,-0.33
2017-01-25T10:17:13.738Z,-0.26
2017-01-25T10:18:13.644Z,-0.12
2017-01-25T10:19:13.724Z,-0.26
2017-01-25T10:20:13.652Z,-0.18
2017-01-25T10:21:13.670Z,-0.15
2017-01-25T10:22:13.671Z,-0.24
2017-01-25T10:23:13.683Z,-0.12
2017-01-25T10:24:13.659Z,-0.12
2017-01-25T10:25:13.680Z,-0.16
2017-01-25T10:26:13.667Z,-0.11
2017-01-25T10:27:13.674Z,-0.06
2017-01-25T10:28:13.677Z,-0.13
2017-01-25T10:29:13.693Z,0
2017-01-25T10:30:13.664Z,-0.11
2017-01-25T10:31:13.674Z,-0.12
2017-01-25T10:32:13.670Z,-0.01
2017-01-25T10:33:13.784Z,0
2017-01-25T10:34:13.671Z,0.05
2017-01-25T10:35:13.677Z,0.16
2017-01-25T10:36:13.688Z,0.03
2017-01-25T10:37:13.676Z,0.18
2017-01-25T10:38:13.684Z,0.15
2017-01-25T10:39:13.661Z,0.1
2017-01-25T10:40:13.752Z,0.2
2017-01-25T10:41:13.678Z,0.2
2017-01-25T10:42:13.664Z,0.41
2017-01-25T10:43:13.670Z,0.36
2017-01-25T10:44:13.659Z,0.3
2017-01-25T10:45:13.650Z,0.42
2017-01-25T10:46:13.665Z,0.39
2017-01-25T10:47:13.681Z,0.51
2017-01-25T10:48:13.677Z,0.46
2017-01-25T10:49:13.678Z,0.46
2017-01-25T10:50:13.679Z,0.51
2017-01-25T10:51:13.827Z,0.6
2017-01-25T10:52:13.680Z,0.65
2017-01-25T10:53:13.678Z,0.67
2017-01-25T10:54:13.662Z,0.67
2017-01-25T10:55:13.659Z,0.72
2017-01-25T10:56:13.660Z,0.7
2017-01-25T10:57:13.674Z,0.82
2017-01-25T10:58:13.665Z,0.72
2017-01-25T10:59:13.694Z,0.8
2017-01-25T11:00:13.680Z,0.85
2017-01-25T11:01:13.677Z,0.8
2017-01-25T11:02:13.817Z,0.89
2017-01-25T11:03:13.676Z,0.86
2017-01-25T11:04:13.696Z,0.89
2017-01-25T11:05:13.871Z,0.9
2017-01-25T11:06:13.683Z,0.94
2017-01-25T11:07:13.674Z,0.89
2017-01-25T11:08:13.735Z,0.97
2017-01-25T11:09:13.672Z,0.85
2017-01-25T11:10:13.714Z,0.89
2017-01-25T11:11:13.700Z,0.86
2017-01-25T11:12:13.694Z,1
2017-01-25T11:13:13.743Z,0.88
2017-01-25T11:14:13.708Z,0.97
2017-01-25T11:15:13.683Z,0.97
2017-01-25T11:16:13.709Z,1
2017-01-25T11:17:13.712Z,1.1
2017-01-25T11:18:13.677Z,1.01
2017-01-25T11:19:13.696Z,0.98
2017-01-25T11:20:13.687Z,1.12
2017-01-25T11:21:13.697Z,1.18
2017-01-25T11:22:13.683Z,1.04
2017-01-25T11:23:13.709Z,0.96
2017-01-25T11:24:13.701Z,1.08
2017-01-25T11:25:13.698Z,1.14
2017-01-25T11:26:13.685Z,0.96
2017-01-25T11:27:13.705Z,1.12
2017-01-25T11:28:13.693Z,1.16
2017-01-25T11:29:13.711Z,1.07
2017-01-25T11:30:13.708Z,1
2017-01-25T11:31:13.684Z,1.15
2017-01-25T11:32:13.713Z,1.18
2017-01-25T11:33:13.716Z,1.24
2017-01-25T11:34:13.702Z,1.08
2017-01-25T11:35:13.702Z,1.24
2017-01-25T11:36:13.685Z,1.26
2017-01-25T11:37:13.907Z,1.25
2017-01-25T11:38:14.274Z,1.33
2017-01-25T11:39:13.720Z,1.26
2017-01-25T11:40:13.736Z,1.34
2017-01-25T11:41:13.850Z,1.36
2017-01-25T11:42:13.729Z,1.34
2017-01-25T11:43:13.731Z,1.42
2017-01-25T11:44:13.824Z,1.33
2017-01-25T11:45:13.772Z,1.47
2017-01-25T11:46:13.816Z,1.5
2017-01-25T11:47:13.804Z,1.36
2017-01-25T11:48:13.714Z,1.43
2017-01-25T11:49:13.738Z,1.46
2017-01-25T11:50:13.794Z,1.39
2017-01-25T11:51:13.769Z,1.57
2017-01-25T11:52:13.716Z,1.54
2017-01-25T11:53:13.765Z,1.55
2017-01-25T11:54:13.764Z,1.57
2017-01-25T11:55:13.720Z,1.46
2017-01-25T11:56:13.820Z,1.51
2017-01-25T11:57:13.702Z,1.68
2017-01-25T11:58:13.791Z,1.64
2017-01-25T11:59:13.730Z,1.69
2017-01-25T12:00:13.753Z,1.75
2017-01-25T12:01:13.716Z,1.76
2017-01-25T12:02:13.823Z,1.89
2017-01-25T12:03:13.874Z,1.73
2017-01-25T12:04:13.801Z,1.68
2017-01-25T12:05:13.716Z,1.65
2017-01-25T12:06:13.729Z,1.61
2017-01-25T12:07:13.735Z,1.72
2017-01-25T12:08:13.747Z,1.71
2017-01-25T12:09:13.742Z,1.65
2017-01-25T12:10:13.793Z,1.64
2017-01-25T12:11:13.734Z,1.71
2017-01-25T12:12:13.723Z,1.69
2017-01-25T12:13:13.776Z,1.6
2017-01-25T12:14:13.758Z,1.76
2017-01-25T12:15:13.789Z,1.68
2017-01-25T12:16:13.747Z,1.69
2017-01-25T12:17:13.749Z,1.65
2017-01-25T12:18:13.752Z,1.64
2017-01-25T12:19:13.787Z,1.79
2017-01-25T12:20:13.852Z,1.71
2017-01-25T12:21:13.733Z,1.79
2017-01-25T12:22:13.868Z,1.65
2017-01-25T12:23:13.718Z,1.68
2017-01-25T12:24:13.753Z,1.69
2017-01-25T12:25:13.723Z,1.62
2017-01-25T12:26:13.852Z,1.61
2017-01-25T12:27:13.980Z,1.57
2017-01-25T12:28:13.893Z,1.79
2017-01-25T12:29:13.767Z,1.57
2017-01-25T12:30:13.969Z,1.69
2017-01-25T12:31:13.726Z,1.65
2017-01-25T12:32:13.735Z,1.6
2017-01-25T12:33:13.733Z,1.65
2017-01-25T12:34:13.850Z,1.8
2017-01-25T12:35:14.920Z,1.65
2017-01-25T12:36:13.766Z,1.6
2017-01-25T12:37:14.230Z,1.65
2017-01-25T12:38:13.750Z,1.82
2017-01-25T12:39:13.753Z,1.68
2017-01-25T12:40:13.828Z,1.94
2017-01-25T12:41:13.761Z,1.85
2017-01-25T12:42:13.822Z,1.82
2017-01-25T12:43:14.125Z,1.85
2017-01-25T12:44:13.747Z,1.99
2017-01-25T12:45:13.747Z,1.97
2017-01-25T12:46:13.806Z,2.12
2017-01-25T12:47:13.790Z,1.97
2017-01-25T12:48:13.755Z,1.98
2017-01-25T12:49:13.751Z,1.9
2017-01-25T12:50:13.767Z,2.12
2017-01-25T12:51:13.909Z,2.04
2017-01-25T12:52:13.747Z,2.04
2017-01-25T12:53:13.754Z,2.23
2017-01-25T12:54:13.754Z,2.2
2017-01-25T12:55:13.779Z,2.19
2017-01-25T12:56:13.828Z,2.23
2017-01-25T12:57:13.747Z,2.19
2017-01-25T12:58:13.746Z,2.23
2017-01-25T12:59:13.774Z,2.23
2017-01-25T13:00:13.804Z,2.19
2017-01-25T13:01:13.780Z,2.33